createdAt,value
2023-05-18T00:01:41.061Z,15.63
2023-05-18T00:04:08.908Z,15.56
2023-05-18T00:06:35.776Z,15.53
2023-05-18T00:09:02.612Z,15.69
2023-05-18T00:11:29.520Z,15.68
2023-05-18T00:13:56.551Z,15.62
2023-05-18T00:16:23.675Z,15.57
2023-05-18T00:18:54.942Z,15.54
2023-05-18T00:21:22.874Z,15.54
2023-05-18T00:23:50.745Z,15.52
2023-05-18T00:26:17.685Z,15.56
2023-05-18T00:28:44.688Z,15.56
2023-05-18T00:31:11.571Z,15.52
2023-05-18T00:33:38.547Z,15.51
2023-05-18T00:36:05.699Z,15.52
2023-05-18T00:38:33.041Z,15.46
2023-05-18T00:41:00.151Z,15.47
2023-05-18T00:43:28.055Z,15.46
2023-05-18T00:45:54.948Z,15.51
2023-05-18T00:48:21.956Z,15.50
2023-05-18T00:50:48.854Z,15.41
2023-05-18T00:53:16.008Z,15.46
2023-05-18T00:55:43.169Z,15.42
2023-05-18T00:58:14.932Z,15.33
2023-05-18T01:25:54.470Z,14.66
2023-05-18T01:37:47.218Z,14.68
2023-05-18T01:40:31.385Z,14.58
2023-05-18T01:43:03.838Z,14.45
2023-05-18T02:02:21.412Z,13.57
2023-05-18T02:18:14.467Z,13.15
2023-05-18T02:41:07.347Z,12.72
2023-05-18T03:00:03.228Z,12.82
2023-05-18T03:27:44.197Z,12.53
2023-05-18T03:48:58.411Z,12.43
2023-05-18T03:59:24.200Z,12.75
2023-05-18T04:47:41.151Z,13.05
2023-05-18T04:53:02.706Z,12.83
2023-05-18T05:12:14.091Z,12.45
2023-05-18T05:17:30.222Z,12.48
2023-05-18T05:19:58.208Z,12.36
2023-05-18T05:22:25.237Z,12.43
2023-05-18T05:24:52.650Z,12.63
2023-05-18T05:27:20.165Z,12.54
2023-05-18T05:29:47.711Z,12.62
2023-05-18T05:32:15.442Z,12.56
2023-05-18T05:34:47.344Z,12.36
2023-05-18T05:37:16.202Z,12.42
2023-05-18T05:39:45.217Z,12.61
2023-05-18T05:42:12.241Z,12.64
2023-05-18T05:44:41.696Z,12.68
2023-05-18T05:47:09.256Z,12.70
2023-05-18T05:49:37.351Z,12.44
2023-05-18T05:52:04.884Z,12.59
2023-05-18T05:54:32.242Z,12.76
2023-05-18T05:57:00.000Z,12.73
2023-05-18T05:59:27.113Z,12.68
2023-05-18T06:01:54.153Z,12.74
2023-05-18T06:04:21.154Z,12.72
2023-05-18T06:06:49.044Z,12.67
2023-05-18T06:09:16.647Z,12.91
2023-05-18T06:11:43.556Z,12.92
2023-05-18T06:14:10.514Z,13.01
2023-05-18T06:16:37.479Z,12.86
2023-05-18T06:19:04.623Z,12.92
2023-05-18T06:21:31.934Z,12.84
2023-05-18T06:23:59.086Z,12.74
2023-05-18T06:26:25.960Z,12.85
2023-05-18T06:28:52.873Z,12.67
2023-05-18T06:31:19.836Z,12.66
2023-05-18T06:33:46.814Z,12.83
2023-05-18T06:36:15.423Z,12.99
2023-05-18T06:38:42.399Z,12.86
2023-05-18T06:41:09.424Z,12.93
2023-05-18T06:43:36.406Z,12.92
2023-05-18T06:46:03.370Z,12.95
2023-05-18T06:48:30.320Z,12.91
2023-05-18T06:50:57.173Z,13.05
2023-05-18T06:53:24.312Z,13.11
2023-05-18T06:55:51.201Z,13.01
2023-05-18T06:58:18.115Z,13.01
2023-05-18T07:00:45.581Z,12.92
2023-05-18T07:03:12.556Z,12.99
2023-05-18T07:05:39.843Z,12.99
2023-05-18T07:08:07.561Z,13.20
2023-05-18T07:10:40.996Z,13.30
2023-05-18T07:13:08.012Z,13.28
2023-05-18T07:15:35.137Z,13.33
2023-05-18T07:18:02.608Z,13.31
2023-05-18T07:20:29.682Z,13.42
2023-05-18T07:22:56.803Z,13.29
2023-05-18T07:25:24.287Z,13.24
2023-05-18T07:27:54.897Z,13.18
2023-05-18T07:30:22.725Z,12.98
2023-05-18T07:32:51.168Z,13.04
2023-05-18T07:35:20.642Z,12.96
2023-05-18T07:37:48.086Z,13.06
2023-05-18T07:40:18.184Z,13.49
2023-05-18T07:42:45.373Z,14.10
2023-05-18T07:45:12.658Z,14.02
2023-05-18T07:47:39.738Z,14.15
2023-05-18T07:50:07.263Z,14.30
2023-05-18T07:52:34.375Z,14.17
2023-05-18T07:55:01.899Z,13.75
2023-05-18T07:57:30.746Z,13.62
2023-05-18T07:59:57.906Z,13.60
2023-05-18T08:02:24.970Z,13.57
2023-05-18T08:04:52.327Z,13.45
2023-05-18T08:07:19.462Z,13.59
2023-05-18T08:09:46.404Z,13.62
2023-05-18T08:12:13.253Z,13.58
2023-05-18T08:14:40.500Z,13.49
2023-05-18T08:17:12.881Z,13.43
2023-05-18T08:19:41.930Z,13.42
2023-05-18T08:22:09.177Z,13.51
2023-05-18T08:24:36.183Z,13.47
2023-05-18T08:27:03.807Z,13.36
2023-05-18T08:29:31.076Z,13.40
2023-05-18T08:31:58.177Z,13.35
2023-05-18T08:34:25.556Z,13.04
2023-05-18T08:36:53.003Z,13.07
2023-05-18T08:39:20.150Z,13.04
2023-05-18T08:42:03.242Z,13.01
2023-05-18T08:44:43.556Z,12.90
2023-05-18T08:47:13.750Z,12.91
2023-05-18T08:49:42.614Z,12.74
2023-05-18T08:52:09.821Z,12.70
2023-05-18T08:54:38.335Z,12.85
2023-05-18T08:57:12.194Z,12.97
2023-05-18T08:59:44.757Z,12.96
2023-05-18T09:02:13.494Z,13.18
2023-05-18T09:04:42.775Z,13.24
2023-05-18T09:07:11.276Z,13.27
2023-05-18T09:09:40.003Z,13.30
2023-05-18T09:12:08.219Z,13.36
2023-05-18T09:14:35.837Z,13.38
2023-05-18T09:17:03.599Z,13.46
2023-05-18T09:22:06.952Z,13.16
2023-05-18T09:24:34.709Z,13.27
2023-05-18T09:27:01.977Z,13.36
2023-05-18T09:29:30.209Z,13.43
2023-05-18T09:32:02.267Z,13.38
2023-05-18T09:34:41.933Z,13.28
2023-05-18T09:37:09.957Z,13.46
2023-05-18T09:39:37.073Z,13.47
2023-05-18T09:42:04.569Z,13.42
2023-05-18T09:44:33.847Z,13.31
2023-05-18T09:47:01.643Z,13.34
2023-05-18T09:49:32.063Z,13.40
2023-05-18T09:52:01.696Z,13.40
2023-05-18T09:54:29.014Z,13.53
2023-05-18T09:57:09.597Z,13.58
2023-05-18T09:59:38.381Z,13.37
2023-05-18T10:02:06.644Z,13.50
2023-05-18T10:04:43.870Z,13.57
2023-05-18T10:07:12.874Z,13.65
2023-05-18T10:09:41.686Z,13.66
2023-05-18T10:12:17.195Z,13.64
2023-05-18T10:14:46.254Z,13.70
2023-05-18T10:17:16.291Z,13.60
2023-05-18T10:19:45.215Z,13.71
2023-05-18T10:22:16.394Z,13.52
2023-05-18T10:24:48.440Z,13.64
2023-05-18T10:27:21.508Z,13.54
2023-05-18T10:29:52.717Z,13.63
2023-05-18T10:32:23.313Z,13.71
2023-05-18T10:34:56.541Z,13.49
2023-05-18T10:37:24.731Z,13.68
2023-05-18T10:39:54.991Z,13.73
2023-05-18T10:42:23.874Z,13.64
2023-05-18T10:44:56.851Z,13.52
2023-05-18T10:47:28.267Z,13.48
2023-05-18T10:49:58.693Z,13.61
2023-05-18T10:52:32.595Z,13.75
2023-05-18T10:55:02.776Z,13.71
2023-05-18T10:57:38.512Z,13.48
2023-05-18T11:00:09.516Z,13.66
2023-05-18T11:02:42.854Z,13.70
2023-05-18T11:05:11.864Z,13.80
2023-05-18T11:07:45.405Z,13.89
2023-05-18T11:10:12.341Z,13.84
2023-05-18T11:12:41.433Z,13.92
2023-05-18T11:15:09.473Z,13.69
2023-05-18T11:17:43.309Z,13.83
2023-05-18T11:20:14.084Z,13.72
2023-05-18T11:22:54.234Z,13.69
2023-05-18T11:25:33.182Z,13.63
2023-05-18T11:28:05.713Z,13.67
2023-05-18T11:30:40.763Z,13.55
2023-05-18T11:33:16.215Z,13.62
2023-05-18T11:36:12.053Z,13.60
2023-05-18T11:38:48.225Z,13.64
2023-05-18T11:41:53.193Z,13.60
2023-05-18T11:44:23.633Z,13.61
2023-05-18T11:47:11.293Z,13.61
2023-05-18T11:49:46.754Z,13.42
2023-05-18T11:52:24.253Z,13.53
2023-05-18T11:54:55.796Z,13.51
2023-05-18T11:57:39.271Z,13.60
2023-05-18T12:00:08.214Z,13.73
2023-05-18T12:02:35.833Z,13.76
2023-05-18T12:05:08.511Z,13.73
2023-05-18T12:07:36.625Z,13.67
2023-05-18T12:10:07.188Z,13.76
2023-05-18T12:12:35.381Z,13.74
2023-05-18T12:15:07.206Z,13.88
2023-05-18T12:17:48.025Z,13.86
2023-05-18T12:20:20.803Z,13.71
2023-05-18T12:22:52.899Z,13.71
2023-05-18T12:25:22.106Z,13.81
2023-05-18T12:27:50.677Z,13.89
2023-05-18T12:30:20.441Z,13.70
2023-05-18T12:32:51.012Z,13.73
2023-05-18T12:35:21.973Z,13.77
2023-05-18T12:37:48.851Z,13.85
2023-05-18T12:40:19.070Z,13.85
2023-05-18T12:42:57.162Z,13.82
2023-05-18T12:45:33.922Z,13.67
2023-05-18T12:48:14.012Z,13.59
2023-05-18T12:50:51.198Z,13.44
2023-05-18T12:53:19.905Z,13.57
2023-05-18T12:58:29.282Z,13.54
2023-05-18T13:00:56.579Z,13.52
2023-05-18T13:03:25.638Z,13.66
2023-05-18T13:06:07.332Z,13.48
2023-05-18T13:11:28.432Z,13.45
2023-05-18T13:19:27.724Z,13.61
2023-05-18T13:21:58.535Z,13.62
2023-05-18T13:24:33.359Z,13.56
2023-05-18T13:51:56.182Z,13.54
2023-05-18T13:56:58.663Z,13.50
2023-05-18T14:05:11.092Z,13.60
2023-05-18T14:10:21.102Z,13.58
2023-05-18T14:15:17.665Z,13.74
2023-05-18T14:17:45.484Z,13.66
2023-05-18T14:22:48.476Z,13.82
2023-05-18T14:25:15.891Z,13.83
2023-05-18T14:27:43.452Z,13.73
2023-05-18T14:30:42.670Z,13.88
2023-05-18T14:35:58.537Z,13.77
2023-05-18T14:38:27.183Z,13.86
2023-05-18T14:40:54.500Z,13.81
2023-05-18T14:43:22.791Z,13.83
2023-05-18T14:48:32.052Z,13.66
2023-05-18T14:51:07.087Z,13.93
2023-05-18T14:58:54.710Z,14.03
2023-05-18T15:01:21.946Z,13.95
2023-05-18T15:03:49.232Z,13.92
2023-05-18T15:06:16.740Z,13.89
2023-05-18T15:08:45.343Z,13.92
2023-05-18T15:11:12.237Z,13.89
2023-05-18T15:13:40.817Z,13.97
2023-05-18T15:16:07.846Z,13.92
2023-05-18T15:18:34.751Z,13.99
2023-05-18T15:21:01.720Z,13.98
2023-05-18T15:23:28.698Z,13.96
2023-05-18T15:25:55.720Z,13.82
2023-05-18T15:28:22.680Z,14.02
2023-05-18T15:30:49.928Z,14.05
2023-05-18T15:33:17.102Z,13.96
2023-05-18T15:35:44.191Z,14.02
2023-05-18T15:38:11.152Z,14.06
2023-05-18T15:40:37.989Z,14.27
2023-05-18T15:43:04.929Z,14.25
2023-05-18T15:45:31.949Z,14.50
2023-05-18T15:47:59.108Z,14.78
2023-05-18T15:53:08.488Z,14.38
2023-05-18T15:55:35.951Z,14.16
2023-05-18T15:58:03.828Z,14.18
2023-05-18T16:00:32.816Z,14.02
2023-05-18T16:03:00.413Z,14.01
2023-05-18T16:05:48.378Z,13.98
2023-05-18T16:08:15.509Z,14.06
2023-05-18T16:13:18.347Z,13.97
2023-05-18T16:15:46.653Z,13.85
2023-05-18T16:18:13.524Z,13.90
2023-05-18T16:20:40.591Z,13.83
2023-05-18T16:23:07.949Z,13.81
2023-05-18T16:25:36.509Z,13.72
2023-05-18T16:28:04.395Z,13.69
2023-05-18T16:30:31.638Z,13.90
2023-05-18T16:32:58.874Z,13.85
2023-05-18T16:35:26.494Z,13.80
2023-05-18T16:37:53.404Z,13.71
2023-05-18T16:40:20.273Z,13.63
2023-05-18T16:42:47.684Z,13.64
2023-05-18T16:45:15.257Z,13.57
2023-05-18T16:47:42.447Z,13.48
2023-05-18T16:50:09.982Z,13.60
2023-05-18T16:52:36.974Z,13.41
2023-05-18T16:55:03.912Z,13.44
2023-05-18T16:57:32.095Z,13.45
2023-05-18T17:00:01.268Z,13.52
2023-05-18T17:05:24.072Z,13.55
2023-05-18T17:10:35.715Z,13.17
2023-05-18T17:15:51.261Z,13.17
2023-05-18T17:20:53.739Z,13.25
2023-05-18T17:26:06.678Z,13.18
2023-05-18T17:31:54.520Z,13.15
2023-05-18T17:34:21.889Z,13.00
2023-05-18T17:36:49.274Z,13.21
2023-05-18T17:39:16.781Z,13.18
2023-05-18T17:41:44.553Z,13.27
2023-05-18T17:44:14.106Z,13.20
2023-05-18T17:54:47.070Z,13.31
2023-05-18T18:05:34.930Z,13.25
2023-05-18T18:16:01.258Z,13.38
2023-05-18T18:21:17.137Z,13.52
2023-05-18T18:34:52.907Z,13.48
2023-05-18T18:37:20.047Z,13.38
2023-05-18T18:39:47.045Z,13.44
2023-05-18T18:50:09.525Z,13.47
2023-05-18T18:52:36.440Z,13.57
2023-05-18T18:55:03.817Z,13.53
2023-05-18T19:00:14.096Z,13.36
2023-05-18T19:02:41.792Z,13.53
2023-05-18T19:05:09.729Z,13.49
2023-05-18T19:07:37.487Z,13.44
2023-05-18T19:10:05.675Z,13.43
2023-05-18T19:12:33.277Z,13.46
2023-05-18T19:15:00.263Z,13.45
2023-05-18T19:17:27.332Z,13.42
2023-05-18T19:19:54.893Z,13.42
2023-05-18T19:22:22.139Z,13.46
2023-05-18T19:24:49.178Z,13.35
2023-05-18T19:39:00.026Z,13.29
2023-05-18T19:41:26.981Z,13.29
